Terminal Aerodrome Forecast
Issued by NWS

Home | Current Version | Previous Version | Graphics & Text | Print | Product List | Glossary On
Versions: 1 2 3 4 5 6 7 8 9 10 11 12 13 14 15 16 17 18 19 20 21
572
FTUS43 KUNR 231720
TAFGCC
TAF
KGCC 231720Z 2318/2418 35022G32KT P6SM -SHRA OVC020
     FM232300 34024G34KT 3SM -SN BR BKN008 OVC015
     FM240200 34015G25KT 2SM -SN VV006
     FM241200 36014KT P6SM BKN015=

USA.gov is the U.S. government's official web portal to all federal, state and local government web resources and services.